Time;durP1;ratioP1;P1;durP2;ratioP2;P2;SDS_P1;SDS_P2;PMS_P1;PMS_P2;Temp;Humidity;BMP_temperature;BMP_pressure;BME280_temperature;BME280_humidity;BME280_pressure;Samples;Min_cycle;Max_cycle;Signal;HPM_P1;HPM_P2
2022/03/02 00:00:11;;;;;;;17.30;7.93;;;0.00;99.90;;;;;;5077284;28;20108;-68
2022/03/02 00:02:38;;;;;;;17.52;7.75;;;0.00;99.90;;;;;;5077474;28;20013;-68
2022/03/02 00:05:07;;;;;;;18.95;7.35;;;0.00;99.90;;;;;;5076865;28;20040;-68
2022/03/02 00:07:35;;;;;;;19.10;8.23;;;0.00;99.90;;;;;;5076319;28;20028;-68
2022/03/02 00:10:04;;;;;;;16.42;7.65;;;0.10;99.90;;;;;;5076236;28;20021;-68
2022/03/02 00:12:33;;;;;;;14.82;7.65;;;0.10;99.90;;;;;;5076313;28;20021;-68
2022/03/02 00:15:00;;;;;;;37.95;13.43;;;0.10;99.90;;;;;;5076142;28;20445;-68
2022/03/02 00:17:28;;;;;;;21.70;8.10;;;0.10;99.90;;;;;;5076111;28;20478;-68
2022/03/02 00:19:56;;;;;;;21.90;8.38;;;0.00;99.90;;;;;;5076100;28;20021;-68
2022/03/02 00:22:23;;;;;;;16.33;7.47;;;0.10;99.90;;;;;;5076293;28;20032;-68
2022/03/02 00:24:51;;;;;;;18.60;9.45;;;0.10;99.90;;;;;;5058406;28;20044;-68
2022/03/02 00:27:19;;;;;;;20.20;8.75;;;0.10;99.90;;;;;;5076939;28;20025;-68
2022/03/02 00:29:47;;;;;;;22.30;8.68;;;0.10;99.90;;;;;;5077564;28;20029;-68
2022/03/02 00:32:15;;;;;;;21.65;9.65;;;0.10;99.90;;;;;;5059378;28;20052;-68
2022/03/02 00:34:42;;;;;;;22.80;9.00;;;0.10;99.90;;;;;;5076899;28;20025;-68
2022/03/02 00:37:09;;;;;;;28.38;9.93;;;0.10;99.90;;;;;;5077610;28;20347;-68
2022/03/02 00:39:37;;;;;;;26.00;10.57;;;0.10;99.90;;;;;;5059541;28;20317;-68
2022/03/02 00:42:06;;;;;;;29.80;11.35;;;0.20;99.90;;;;;;5077759;28;20404;-68
2022/03/02 00:44:34;;;;;;;23.00;10.10;;;0.20;99.90;;;;;;5080536;28;20032;-68
2022/03/02 00:47:02;;;;;;;24.38;10.15;;;0.20;99.90;;;;;;5080101;28;20103;-68
2022/03/02 00:49:31;;;;;;;24.83;9.95;;;0.20;99.90;;;;;;5079651;28;20103;-68
2022/03/02 00:51:59;;;;;;;22.25;9.13;;;0.20;99.90;;;;;;5079687;28;20032;-68
2022/03/02 00:54:26;;;;;;;24.33;9.38;;;0.20;99.90;;;;;;5079831;28;20043;-68
2022/03/02 00:56:54;;;;;;;21.00;9.32;;;0.20;99.90;;;;;;5080024;28;20074;-68
2022/03/02 00:59:22;;;;;;;22.30;9.13;;;0.20;99.90;;;;;;5079460;28;20024;-68
2022/03/02 01:01:49;;;;;;;18.70;8.70;;;0.20;99.90;;;;;;5079631;28;20028;-68
2022/03/02 01:04:17;;;;;;;15.27;7.53;;;0.20;99.90;;;;;;5079875;28;20078;-68
2022/03/02 01:06:45;;;;;;;18.35;7.53;;;0.20;99.90;;;;;;5079307;28;20024;-68
2022/03/02 01:09:14;;;;;;;19.77;8.75;;;0.20;99.90;;;;;;5080226;28;20032;-68
2022/03/02 01:11:41;;;;;;;16.83;7.85;;;0.20;99.90;;;;;;5080379;28;20028;-68
2022/03/02 01:14:09;;;;;;;16.75;8.38;;;0.10;99.90;;;;;;5062608;28;20455;-68
2022/03/02 01:16:36;;;;;;;22.83;8.63;;;0.20;99.90;;;;;;5062291;28;20029;-68
2022/03/02 01:19:04;;;;;;;16.60;9.48;;;0.10;99.90;;;;;;5079951;28;20036;-68
2022/03/02 01:21:32;;;;;;;18.20;8.18;;;0.10;99.90;;;;;;5080189;28;20462;-68
2022/03/02 01:24:00;;;;;;;23.30;9.77;;;0.10;99.90;;;;;;5080184;28;20063;-68
2022/03/02 01:26:29;;;;;;;20.60;8.25;;;0.10;99.90;;;;;;5058742;28;20357;-68
2022/03/02 01:28:57;;;;;;;22.50;9.98;;;0.10;99.90;;;;;;5059336;28;20033;-68
2022/03/02 01:31:26;;;;;;;21.40;9.63;;;0.20;99.90;;;;;;5059035;28;20025;-68
2022/03/02 01:33:53;;;;;;;28.52;10.43;;;0.20;99.90;;;;;;5058840;28;20504;-68
2022/03/02 01:36:22;;;;;;;25.77;10.32;;;0.20;99.90;;;;;;5041181;28;20093;-68
2022/03/02 01:38:51;;;;;;;24.42;10.20;;;0.20;99.90;;;;;;5057670;28;20025;-68
2022/03/02 01:41:21;;;;;;;26.33;10.07;;;0.20;99.90;;;;;;5058778;28;20075;-68
2022/03/02 01:43:50;;;;;;;20.00;10.07;;;0.20;99.90;;;;;;5058660;28;20021;-68
2022/03/02 01:46:18;;;;;;;19.77;9.23;;;0.20;99.90;;;;;;5058548;28;20341;-68
2022/03/02 01:48:46;;;;;;;20.67;8.65;;;0.20;99.90;;;;;;5058836;28;20017;-68
2022/03/02 01:51:15;;;;;;;18.67;8.77;;;0.20;99.90;;;;;;5058632;28;20029;-68
2022/03/02 01:53:42;;;;;;;20.83;8.25;;;0.20;99.90;;;;;;5058984;28;20025;-68
2022/03/02 01:56:10;;;;;;;18.77;9.20;;;0.20;99.90;;;;;;5059370;28;20120;-68
2022/03/02 01:58:37;;;;;;;20.83;8.82;;;0.20;99.90;;;;;;5058215;28;20028;-68
2022/03/02 02:01:05;;;;;;;21.10;9.23;;;0.20;99.90;;;;;;5059277;28;20044;-68
2022/03/02 02:03:33;;;;;;;24.00;10.38;;;0.20;99.90;;;;;;5058115;28;20417;-68
2022/03/02 02:06:02;;;;;;;23.60;8.75;;;0.20;99.90;;;;;;5059104;28;20116;-68
2022/03/02 02:08:29;;;;;;;20.33;9.38;;;0.10;99.90;;;;;;5059120;28;20036;-68
2022/03/02 02:10:57;;;;;;;20.20;9.40;;;0.10;99.90;;;;;;5057638;28;20017;-68
2022/03/02 02:13:26;;;;;;;18.70;9.38;;;0.10;99.90;;;;;;5057980;28;20033;-68
2022/03/02 02:15:57;;;;;;;24.02;9.73;;;0.20;99.90;;;;;;5057995;28;20053;-68
2022/03/02 02:18:24;;;;;;;20.17;9.63;;;0.20;99.90;;;;;;5058502;28;20029;-68
2022/03/02 02:20:52;;;;;;;20.60;9.65;;;0.20;99.90;;;;;;5058034;28;20096;-68
2022/03/02 02:23:20;;;;;;;22.02;9.18;;;0.10;99.90;;;;;;5057758;28;20031;-68
2022/03/02 02:25:47;;;;;;;21.67;8.75;;;0.10;99.90;;;;;;5056996;28;20045;-68
2022/03/02 02:28:22;;;;;;;19.90;9.38;;;0.10;99.90;;;;;;5056703;28;20479;-68
2022/03/02 02:30:54;;;;;;;21.33;9.85;;;0.20;99.90;;;;;;5057966;28;20040;-68
2022/03/02 02:33:23;;;;;;;21.92;9.15;;;0.10;99.90;;;;;;5057906;28;20068;-68
2022/03/02 02:35:50;;;;;;;25.60;10.50;;;0.10;99.90;;;;;;5058527;28;20036;-68
2022/03/02 02:38:21;;;;;;;19.90;8.70;;;0.10;99.90;;;;;;5059026;28;20076;-68
2022/03/02 02:40:50;;;;;;;21.02;9.43;;;0.20;99.90;;;;;;5058639;28;20486;-68
2022/03/02 02:43:20;;;;;;;21.85;9.45;;;0.20;99.90;;;;;;5058953;28;20021;-68
2022/03/02 02:45:47;;;;;;;20.98;8.85;;;0.10;99.90;;;;;;5058357;28;20017;-68
2022/03/02 02:48:14;;;;;;;19.27;8.98;;;0.10;99.90;;;;;;5057899;28;20032;-67
2022/03/02 02:50:42;;;;;;;21.85;9.60;;;0.20;99.90;;;;;;5040846;28;20133;-68
2022/03/02 02:53:12;;;;;;;18.20;8.00;;;0.10;99.90;;;;;;5058458;28;20017;-68
2022/03/02 02:55:41;;;;;;;20.83;9.95;;;0.10;99.90;;;;;;5057323;28;20021;-68
2022/03/02 02:58:10;;;;;;;20.02;9.00;;;0.10;99.90;;;;;;5057156;28;20033;-68
2022/03/02 03:00:41;;;;;;;23.50;9.77;;;0.10;99.90;;;;;;5056255;28;20023;-68
2022/03/02 03:03:08;;;;;;;19.35;9.40;;;0.10;99.90;;;;;;5056028;28;20056;-68
2022/03/02 03:05:36;;;;;;;22.67;9.73;;;0.10;99.90;;;;;;5055611;28;20033;-68
2022/03/02 03:08:10;;;;;;;18.40;9.20;;;0.10;99.90;;;;;;5056948;28;20041;-68
2022/03/02 03:10:38;;;;;;;20.38;8.82;;;0.10;99.90;;;;;;5056985;28;20074;-68
2022/03/02 03:13:06;;;;;;;20.65;10.70;;;0.10;99.90;;;;;;5056963;28;20033;-68
2022/03/02 03:15:35;;;;;;;26.60;9.63;;;0.10;99.90;;;;;;5057229;28;20417;-68
2022/03/02 03:18:04;;;;;;;21.02;9.75;;;0.10;99.90;;;;;;5058175;28;20029;-68
2022/03/02 03:20:32;;;;;;;19.65;8.98;;;0.10;99.90;;;;;;5057730;28;20028;-68
2022/03/02 03:23:00;;;;;;;23.65;9.85;;;0.10;99.90;;;;;;5057989;28;20021;-68
2022/03/02 03:25:28;;;;;;;17.90;8.88;;;0.10;99.90;;;;;;5064048;28;20079;-68
2022/03/02 03:27:55;;;;;;;22.33;9.63;;;0.10;99.90;;;;;;5077545;28;20048;-68
2022/03/02 03:30:24;;;;;;;20.33;8.60;;;0.10;99.90;;;;;;5077653;28;20020;-68
2022/03/02 03:32:52;;;;;;;18.38;9.50;;;0.10;99.90;;;;;;5059783;28;20028;-68
2022/03/02 03:35:21;;;;;;;19.65;9.57;;;0.10;99.90;;;;;;5077256;28;20094;-68
2022/03/02 03:37:49;;;;;;;19.50;9.48;;;0.10;99.90;;;;;;5077087;28;20063;-68
2022/03/02 03:40:17;;;;;;;19.33;9.68;;;0.10;99.90;;;;;;5076522;28;20447;-68
2022/03/02 03:42:45;;;;;;;20.30;10.70;;;0.10;99.90;;;;;;5076466;28;20167;-68
2022/03/02 03:45:13;;;;;;;19.42;8.60;;;0.10;99.90;;;;;;5076517;28;20017;-68
2022/03/02 03:47:41;;;;;;;17.13;8.85;;;0.10;99.90;;;;;;5058917;28;20052;-68
2022/03/02 03:50:09;;;;;;;23.77;10.23;;;0.10;99.90;;;;;;5076442;28;20436;-68
2022/03/02 03:52:37;;;;;;;21.48;9.13;;;0.10;99.90;;;;;;5058634;28;20029;-68
2022/03/02 03:55:06;;;;;;;23.05;9.32;;;0.10;99.90;;;;;;5058663;28;20021;-68
2022/03/02 03:57:33;;;;;;;22.02;9.38;;;0.10;99.90;;;;;;5076726;28;20047;-68
2022/03/02 04:00:00;;;;;;;21.88;9.68;;;0.10;99.90;;;;;;5077874;28;20047;-67
2022/03/02 04:02:28;;;;;;;19.65;9.18;;;0.10;99.90;;;;;;5077232;28;20074;-68
2022/03/02 04:04:56;;;;;;;16.63;9.10;;;0.10;99.90;;;;;;5077262;28;20024;-68
2022/03/02 04:07:23;;;;;;;16.95;8.95;;;0.10;99.90;;;;;;5077245;28;20028;-68
2022/03/02 04:09:50;;;;;;;19.40;9.20;;;0.10;99.90;;;;;;5059409;28;20044;-68
2022/03/02 04:12:18;;;;;;;18.23;7.88;;;0.10;99.90;;;;;;5077697;28;20021;-68
2022/03/02 04:14:45;;;;;;;16.92;9.13;;;0.10;99.90;;;;;;5077152;28;20035;-68
2022/03/02 04:17:12;;;;;;;19.63;9.05;;;0.10;99.90;;;;;;5077808;28;20107;-68
2022/03/02 04:19:40;;;;;;;21.75;9.43;;;0.10;99.90;;;;;;5045834;28;20329;-68
2022/03/02 04:22:07;;;;;;;25.25;8.65;;;0.10;99.90;;;;;;5062407;28;20017;-68
2022/03/02 04:24:35;;;;;;;18.70;8.90;;;0.10;99.90;;;;;;5063076;28;20095;-68
2022/03/02 04:27:02;;;;;;;18.75;9.40;;;0.10;99.90;;;;;;5080043;28;20048;-68
2022/03/02 04:29:30;;;;;;;19.40;9.20;;;0.10;99.90;;;;;;5080046;28;20024;-68
2022/03/02 04:31:58;;;;;;;20.23;8.75;;;0.10;99.90;;;;;;5080994;28;20028;-68
2022/03/02 04:34:26;;;;;;;18.83;8.73;;;0.10;99.90;;;;;;5062248;28;20368;-68
2022/03/02 04:36:53;;;;;;;18.77;8.88;;;0.10;99.90;;;;;;5079814;28;20024;-68
2022/03/02 04:39:21;;;;;;;17.70;8.63;;;0.10;99.90;;;;;;5045691;28;20029;-68
2022/03/02 04:41:48;;;;;;;17.50;8.77;;;0.10;99.90;;;;;;5080877;28;20047;-68
2022/03/02 04:44:16;;;;;;;18.63;9.05;;;0.10;99.90;;;;;;5080645;28;20050;-68
2022/03/02 04:46:48;;;;;;;17.27;7.95;;;0.10;99.90;;;;;;5063635;28;20347;-68
2022/03/02 04:49:18;;;;;;;17.92;9.07;;;0.10;99.90;;;;;;5081391;28;20028;-68
2022/03/02 04:51:46;;;;;;;19.08;8.98;;;0.10;99.90;;;;;;5081174;28;20100;-68
2022/03/02 04:57:03;;;;;;;16.40;8.40;;;0.00;99.90;;;;;;5080567;28;20043;-68
2022/03/02 04:59:31;;;;;;;20.50;9.30;;;0.00;99.90;;;;;;5080127;28;20021;-68
2022/03/02 05:01:58;;;;;;;16.75;7.85;;;0.00;99.90;;;;;;5061909;28;20047;-68
2022/03/02 05:04:26;;;;;;;18.58;8.35;;;0.00;99.90;;;;;;5079409;28;20047;-68
2022/03/02 05:06:54;;;;;;;19.90;9.32;;;0.00;99.90;;;;;;5079321;28;20424;-68
2022/03/02 05:09:21;;;;;;;18.38;8.60;;;0.00;99.90;;;;;;5079287;28;20064;-68
2022/03/02 05:11:49;;;;;;;18.13;9.23;;;0.00;99.90;;;;;;5062144;28;20032;-67
2022/03/02 05:14:17;;;;;;;19.63;8.75;;;0.00;99.90;;;;;;5079226;28;20020;-68
2022/03/02 05:16:45;;;;;;;17.58;8.65;;;0.00;99.90;;;;;;5079067;28;20028;-68
2022/03/02 05:19:13;;;;;;;16.80;8.18;;;-0.10;99.90;;;;;;5079026;28;20099;-68
2022/03/02 05:21:40;;;;;;;16.10;7.63;;;-0.10;99.90;;;;;;5061459;28;20020;-68
2022/03/02 05:24:07;;;;;;;29.08;13.43;;;0.00;99.90;;;;;;5062144;28;20496;-68
2022/03/02 05:26:34;;;;;;;24.73;10.48;;;-0.10;99.90;;;;;;5042047;28;20083;-68
2022/03/02 05:29:02;;;;;;;19.05;10.20;;;-0.10;99.90;;;;;;5059504;28;20021;-68
2022/03/02 05:31:30;;;;;;;24.23;9.60;;;-0.10;99.90;;;;;;5059065;28;20179;-68
2022/03/02 05:33:57;;;;;;;18.50;8.40;;;-0.10;99.90;;;;;;5058651;28;20021;-68
2022/03/02 05:36:25;;;;;;;17.55;7.95;;;-0.10;99.90;;;;;;5059679;28;20377;-68
2022/03/02 05:38:53;;;;;;;17.25;8.38;;;-0.10;99.90;;;;;;5059694;28;20095;-68
2022/03/02 05:41:21;;;;;;;18.80;8.40;;;-0.10;99.90;;;;;;5059498;28;20025;-68
2022/03/02 05:43:49;;;;;;;17.33;8.35;;;-0.10;99.90;;;;;;5058517;28;20156;-68
2022/03/02 05:46:16;;;;;;;17.55;8.77;;;-0.20;99.90;;;;;;5057519;28;20036;-68
2022/03/02 05:48:44;;;;;;;18.40;8.68;;;-0.20;99.90;;;;;;5041249;28;20417;-68
2022/03/02 05:51:11;;;;;;;18.30;8.82;;;-0.20;99.90;;;;;;5057532;28;20029;-68
2022/03/02 05:53:39;;;;;;;22.70;8.68;;;-0.20;99.90;;;;;;5058466;28;20028;-68
2022/03/02 05:56:08;;;;;;;17.80;8.55;;;-0.30;99.90;;;;;;5057308;28;20020;-68
2022/03/02 05:58:35;;;;;;;21.23;9.18;;;-0.30;99.90;;;;;;5057338;28;20025;-68
2022/03/02 06:01:03;;;;;;;17.88;8.48;;;-0.30;99.90;;;;;;5058371;28;20401;-68
2022/03/02 06:03:40;;;;;;;19.00;9.02;;;-0.30;99.90;;;;;;5057221;28;20499;-68
2022/03/02 06:06:08;;;;;;;18.40;9.30;;;-0.30;99.90;;;;;;5059367;28;20024;-68
2022/03/02 06:08:36;;;;;;;17.27;9.25;;;-0.40;99.90;;;;;;5058014;28;20112;-68
2022/03/02 06:11:03;;;;;;;18.45;8.65;;;-0.40;99.90;;;;;;5058812;28;20017;-68
2022/03/02 06:13:31;;;;;;;19.98;8.57;;;-0.40;99.90;;;;;;5059194;28;20025;-68
2022/03/02 06:15:59;;;;;;;18.17;9.23;;;-0.40;99.90;;;;;;5057871;28;20029;-68
2022/03/02 06:18:29;;;;;;;25.27;10.30;;;-0.50;99.90;;;;;;5059156;28;20021;-68
2022/03/02 06:21:03;;;;;;;20.10;8.88;;;-0.50;99.90;;;;;;5059470;28;20067;-68
2022/03/02 06:23:32;;;;;;;19.30;8.13;;;-0.50;99.90;;;;;;5058757;28;20112;-68
2022/03/02 06:26:01;;;;;;;18.40;8.70;;;-0.60;99.90;;;;;;5068375;28;20052;-67
2022/03/02 06:28:28;;;;;;;19.05;7.93;;;-0.60;99.90;;;;;;5077647;28;20046;-68
2022/03/02 06:30:55;;;;;;;16.25;8.02;;;-0.60;99.90;;;;;;5078492;28;20100;-68
2022/03/02 06:33:23;;;;;;;20.45;9.00;;;-0.50;99.90;;;;;;5078129;28;20108;-68
2022/03/02 06:35:51;;;;;;;17.77;9.40;;;-0.50;99.90;;;;;;5077611;28;20033;-68
2022/03/02 06:38:20;;;;;;;18.48;8.23;;;-0.50;99.90;;;;;;5077709;28;20035;-72
2022/03/02 06:41:02;;;;;;;21.02;8.85;;;-0.50;99.90;;;;;;5077104;28;20024;-72
2022/03/02 06:43:52;;;;;;;17.58;8.15;;;-0.50;99.90;;;;;;5077599;28;20024;-72
2022/03/02 06:46:32;;;;;;;18.00;8.88;;;-0.40;99.90;;;;;;5059775;28;20052;-73
2022/03/02 06:49:22;;;;;;;16.90;8.07;;;-0.40;99.90;;;;;;5078783;28;20024;-75
2022/03/02 06:51:55;;;;;;;18.83;8.82;;;-0.30;99.90;;;;;;5078800;28;20424;-73
2022/03/02 06:54:30;;;;;;;20.25;9.40;;;-0.20;99.90;;;;;;5078176;28;20024;-74
2022/03/02 06:57:00;;;;;;;21.65;10.30;;;-0.20;99.90;;;;;;5078501;28;20405;-74
2022/03/02 06:59:42;;;;;;;35.45;13.73;;;-0.10;99.90;;;;;;5078122;28;20021;-75
2022/03/02 07:02:15;;;;;;;26.50;11.00;;;-0.10;99.90;;;;;;5078312;28;20028;-76
2022/03/02 07:04:43;;;;;;;21.52;9.75;;;0.00;99.90;;;;;;5078041;28;20042;-76
2022/03/02 07:07:12;;;;;;;17.83;7.80;;;0.00;99.90;;;;;;5077961;28;20029;-77
2022/03/02 07:09:39;;;;;;;16.52;8.35;;;0.10;99.90;;;;;;5076996;28;20455;-76
2022/03/02 07:12:07;;;;;;;20.00;9.95;;;0.10;99.90;;;;;;5076937;28;20024;-75
2022/03/02 07:14:35;;;;;;;19.30;8.13;;;0.20;99.90;;;;;;5077815;28;20032;-75
2022/03/02 07:17:05;;;;;;;21.90;7.65;;;0.30;99.90;;;;;;5076970;28;20020;-77
2022/03/02 07:19:33;;;;;;;18.02;8.50;;;0.40;99.90;;;;;;5077158;28;20025;-81
2022/03/02 07:22:09;;;;;;;19.40;8.85;;;0.50;99.90;;;;;;5076826;28;20047;-75
2022/03/02 07:24:55;;;;;;;16.83;8.65;;;0.60;99.90;;;;;;5076765;28;20020;-74
2022/03/02 07:27:27;;;;;;;14.25;7.63;;;0.70;99.90;;;;;;5056773;28;20428;-75
2022/03/02 07:29:55;;;;;;;21.90;9.70;;;0.80;99.90;;;;;;5056582;28;20115;-72
2022/03/02 07:32:28;;;;;;;16.33;9.32;;;1.00;99.90;;;;;;5058060;28;20100;-71
2022/03/02 07:35:01;;;;;;;18.10;9.18;;;1.10;99.90;;;;;;5057525;28;20035;-70
2022/03/02 07:37:30;;;;;;;17.33;7.55;;;1.20;99.90;;;;;;5057480;28;20025;-70
2022/03/02 07:39:58;;;;;;;19.50;8.40;;;1.30;99.90;;;;;;5057615;28;20025;-72
2022/03/02 07:42:25;;;;;;;16.20;7.68;;;1.40;99.90;;;;;;5057936;28;20017;-71
2022/03/02 07:44:53;;;;;;;18.15;8.00;;;1.50;99.90;;;;;;5057759;28;20021;-71
2022/03/02 07:47:21;;;;;;;19.92;9.68;;;1.60;99.90;;;;;;5057268;28;20025;-70
2022/03/02 07:49:49;;;;;;;17.10;8.38;;;1.80;99.90;;;;;;5057377;28;20025;-71
2022/03/02 07:52:19;;;;;;;18.70;9.02;;;1.90;99.90;;;;;;5038677;28;20118;-70
2022/03/02 07:54:52;;;;;;;27.92;10.27;;;2.10;99.90;;;;;;5056533;28;20032;-70
2022/03/02 07:57:19;;;;;;;24.27;10.75;;;2.20;99.90;;;;;;5038823;28;20021;-72
2022/03/02 07:59:46;;;;;;;32.20;10.65;;;2.40;99.90;;;;;;5055259;28;20074;-69
2022/03/02 08:02:15;;;;;;;21.77;9.98;;;2.60;99.90;;;;;;5056802;28;20024;-68
2022/03/02 08:05:28;;;;;;;22.85;8.38;;;2.70;99.90;;;;;;5056018;28;20029;-68
2022/03/02 08:07:57;;;;;;;21.55;6.57;;;2.80;99.90;;;;;;5056252;28;20032;-69
2022/03/02 08:10:24;;;;;;;17.52;7.05;;;2.90;99.90;;;;;;5056144;28;20080;-68
2022/03/02 08:12:52;;;;;;;18.02;7.80;;;3.00;99.90;;;;;;5039234;28;20025;-69
2022/03/02 08:15:20;;;;;;;18.13;6.68;;;3.00;99.90;;;;;;5057328;28;20036;-69
2022/03/02 08:17:48;;;;;;;19.40;6.70;;;3.10;99.90;;;;;;5057554;28;20108;-69
2022/03/02 08:20:15;;;;;;;13.57;6.70;;;3.10;99.90;;;;;;5057029;28;20104;-70
2022/03/02 08:22:51;;;;;;;21.10;7.95;;;3.10;99.90;;;;;;5039372;28;20025;-70
2022/03/02 08:25:25;;;;;;;22.70;9.18;;;3.10;99.90;;;;;;5061900;28;20048;-70
2022/03/02 08:27:54;;;;;;;21.27;7.70;;;3.00;99.90;;;;;;5077622;28;20028;-71
2022/03/02 08:30:22;;;;;;;14.73;7.00;;;3.00;99.90;;;;;;5077038;28;20273;-71
2022/03/02 08:32:50;;;;;;;13.15;6.65;;;3.00;99.90;;;;;;5076140;28;20104;-70
2022/03/02 08:35:18;;;;;;;14.43;6.93;;;2.90;99.90;;;;;;5076804;28;20033;-71
2022/03/02 08:37:45;;;;;;;12.50;6.88;;;2.90;99.90;;;;;;5076532;28;20020;-70
2022/03/02 08:40:13;;;;;;;19.10;6.93;;;2.80;99.90;;;;;;5058255;28;20425;-71
2022/03/02 08:42:41;;;;;;;13.73;7.68;;;2.80;99.90;;;;;;5076045;28;20028;-70
2022/03/02 08:45:09;;;;;;;20.55;8.77;;;2.80;99.90;;;;;;5075999;28;20024;-70
2022/03/02 08:47:38;;;;;;;20.90;7.82;;;2.70;99.90;;;;;;5076089;28;20031;-70
2022/03/02 08:50:07;;;;;;;15.93;7.97;;;2.70;99.90;;;;;;5076127;28;20024;-70
2022/03/02 08:52:35;;;;;;;15.38;6.75;;;2.70;99.90;;;;;;5076514;28;20409;-70
2022/03/02 08:55:06;;;;;;;18.35;7.97;;;2.60;99.90;;;;;;5076393;28;20060;-69
2022/03/02 08:57:37;;;;;;;15.65;7.90;;;2.70;99.90;;;;;;5076801;28;20064;-70
2022/03/02 09:00:07;;;;;;;14.35;6.63;;;2.70;99.90;;;;;;5076690;28;20025;-71
2022/03/02 09:02:36;;;;;;;15.15;7.13;;;2.70;99.90;;;;;;5076795;28;20021;-71
2022/03/02 09:05:05;;;;;;;18.00;7.07;;;2.80;99.90;;;;;;5080223;28;20027;-70
2022/03/02 09:07:33;;;;;;;13.13;7.60;;;2.80;99.90;;;;;;5080556;28;20447;-71
2022/03/02 09:10:02;;;;;;;14.80;7.07;;;2.90;99.90;;;;;;5062716;28;20036;-70
2022/03/02 09:12:29;;;;;;;18.17;7.50;;;3.00;99.90;;;;;;5080929;28;20028;-70
2022/03/02 09:14:57;;;;;;;15.63;6.80;;;3.00;99.90;;;;;;5061793;28;20070;-71
2022/03/02 09:17:25;;;;;;;15.52;7.03;;;3.10;99.90;;;;;;5079070;28;20028;-70
2022/03/02 09:19:57;;;;;;;20.50;9.13;;;3.20;99.90;;;;;;5079122;28;20024;-70
2022/03/02 09:22:26;;;;;;;16.90;7.60;;;3.20;99.90;;;;;;5061281;28;20432;-70
2022/03/02 09:24:53;;;;;;;15.52;7.13;;;3.30;99.90;;;;;;5078947;28;20028;-71
2022/03/02 09:27:22;;;;;;;13.85;6.57;;;3.30;99.90;;;;;;5079025;28;20036;-70
2022/03/02 09:29:52;;;;;;;17.00;6.93;;;3.40;99.90;;;;;;5079187;28;20043;-70
2022/03/02 09:32:24;;;;;;;15.27;8.00;;;3.40;99.90;;;;;;5079127;28;20420;-70
2022/03/02 09:34:57;;;;;;;13.75;6.85;;;3.60;99.90;;;;;;5079406;28;20029;-71
2022/03/02 09:37:27;;;;;;;11.65;6.53;;;3.60;99.90;;;;;;5079511;28;20035;-71
2022/03/02 09:39:55;;;;;;;15.52;6.82;;;3.80;99.90;;;;;;5079744;28;20047;-71
2022/03/02 09:42:32;;;;;;;14.52;6.53;;;3.90;99.90;;;;;;5080091;28;20020;-70
2022/03/02 09:45:07;;;;;;;16.88;7.63;;;4.00;99.90;;;;;;5079610;28;20023;-71
2022/03/02 09:47:44;;;;;;;15.95;6.38;;;4.10;99.90;;;;;;5061754;28;20111;-71
2022/03/02 09:50:14;;;;;;;14.05;5.97;;;4.20;99.90;;;;;;5080244;28;20338;-70
2022/03/02 09:52:46;;;;;;;14.50;6.07;;;4.30;99.90;;;;;;5080003;28;20017;-70
2022/03/02 09:55:21;;;;;;;11.88;5.43;;;4.40;99.90;;;;;;5079374;28;20075;-71
2022/03/02 09:57:54;;;;;;;16.50;6.70;;;4.50;99.90;;;;;;5078378;28;20059;-70
2022/03/02 10:00:23;;;;;;;11.10;6.25;;;4.50;99.90;;;;;;5060839;28;20070;-71
2022/03/02 10:02:59;;;;;;;15.95;6.28;;;4.50;99.90;;;;;;5078960;28;20016;-71
2022/03/02 10:05:31;;;;;;;11.30;6.38;;;4.50;99.90;;;;;;5060870;28;20366;-71
2022/03/02 10:08:08;;;;;;;16.42;7.28;;;4.60;99.90;;;;;;5060564;28;20074;-70
2022/03/02 10:10:39;;;;;;;14.00;6.95;;;4.60;99.90;;;;;;5078474;28;20028;-70
2022/03/02 10:13:09;;;;;;;13.68;6.60;;;4.50;99.90;;;;;;5078460;28;20024;-71
2022/03/02 10:15:38;;;;;;;14.77;7.47;;;4.60;99.90;;;;;;5077154;28;20095;-71
2022/03/02 10:18:08;;;;;;;13.90;6.50;;;4.50;99.90;;;;;;5078083;28;20025;-71
2022/03/02 10:20:37;;;;;;;13.98;5.85;;;4.60;99.90;;;;;;5061409;28;20070;-69
2022/03/02 10:23:35;;;;;;;13.90;5.50;;;4.60;99.90;;;;;;5079118;28;20415;-69
2022/03/02 10:26:26;;;;;;;35.35;7.15;;;4.60;99.90;;;;;;5078672;28;20088;-69
2022/03/02 10:29:03;;;;;;;13.80;6.43;;;4.60;99.90;;;;;;5078727;28;20424;-69
2022/03/02 10:31:44;;;;;;;11.70;6.03;;;4.60;99.90;;;;;;5078728;28;20067;-69
2022/03/02 10:34:30;;;;;;;12.05;6.45;;;4.60;99.90;;;;;;5078573;28;20028;-71
2022/03/02 10:37:24;;;;;;;12.95;6.60;;;4.70;99.90;;;;;;5079112;28;20016;-71
2022/03/02 10:40:09;;;;;;;14.13;6.30;;;4.70;99.90;;;;;;5077883;28;20047;-71
2022/03/02 10:42:57;;;;;;;12.70;6.63;;;4.70;99.90;;;;;;5078417;28;20032;-71
2022/03/02 10:45:40;;;;;;;11.98;6.28;;;4.70;99.90;;;;;;5077495;28;20025;-71
2022/03/02 10:48:24;;;;;;;13.30;6.88;;;4.80;99.90;;;;;;5077493;28;20324;-71
2022/03/02 10:50:55;;;;;;;13.85;6.32;;;4.80;99.90;;;;;;5078011;28;20020;-71
2022/03/02 10:53:26;;;;;;;15.02;7.10;;;4.90;99.90;;;;;;5077373;28;20048;-71
2022/03/02 10:55:58;;;;;;;11.77;6.43;;;5.00;99.90;;;;;;5078134;28;20025;-71
2022/03/02 10:58:30;;;;;;;10.48;5.60;;;5.10;99.90;;;;;;5077197;28;20037;-71
2022/03/02 11:01:02;;;;;;;11.00;5.75;;;5.10;99.90;;;;;;5077795;28;20420;-71
2022/03/02 11:03:36;;;;;;;9.95;4.97;;;5.20;99.90;;;;;;5078110;28;20100;-71
2022/03/02 14:02:56;;;;;;;7.80;3.80;;;8.80;55.90;;;;;;5049806;28;20356;-70
2022/03/02 14:05:26;;;;;;;8.13;3.78;;;8.90;54.50;;;;;;5078469;28;20025;-70
2022/03/02 14:07:54;;;;;;;7.63;3.63;;;9.00;53.70;;;;;;5060562;28;20028;-70
2022/03/02 14:10:22;;;;;;;6.78;3.70;;;9.10;52.30;;;;;;5078535;28;20023;-70
2022/03/02 14:12:57;;;;;;;8.73;4.57;;;9.20;51.50;;;;;;5078312;28;20028;-70
2022/03/02 14:15:32;;;;;;;14.63;4.63;;;9.50;51.70;;;;;;5060478;28;20031;-70
2022/03/02 14:18:07;;;;;;;6.43;3.90;;;9.90;51.70;;;;;;5060353;28;20028;-70
2022/03/02 14:20:35;;;;;;;6.13;3.90;;;10.70;49.70;;;;;;5078696;28;20024;-70
2022/03/02 14:23:05;;;;;;;8.82;4.15;;;11.70;48.20;;;;;;5079518;28;20020;-70
2022/03/02 14:25:34;;;;;;;6.70;3.70;;;12.70;46.40;;;;;;5061158;28;20393;-70
2022/03/02 14:28:10;;;;;;;6.53;3.90;;;13.70;44.80;;;;;;5079670;28;20027;-70
2022/03/02 14:30:38;;;;;;;7.45;4.03;;;14.50;42.50;;;;;;5078825;28;20435;-70
2022/03/02 14:33:18;;;;;;;7.82;4.95;;;15.40;40.80;;;;;;5079242;28;20439;-70
2022/03/02 14:35:47;;;;;;;9.77;4.97;;;16.10;40.70;;;;;;5078935;28;20025;-71
2022/03/02 14:38:15;;;;;;;9.25;5.35;;;16.70;40.10;;;;;;5078347;28;20420;-71
2022/03/02 14:40:45;;;;;;;10.85;5.03;;;17.10;39.80;;;;;;5077791;28;20028;-71
2022/03/02 14:43:22;;;;;;;10.73;5.35;;;17.50;39.50;;;;;;5077549;28;20020;-71
2022/03/02 14:45:54;;;;;;;7.25;5.03;;;17.80;39.40;;;;;;5077805;28;20321;-71
2022/03/02 14:48:27;;;;;;;7.63;5.07;;;18.00;39.00;;;;;;5078740;28;20416;-71
2022/03/02 14:50:56;;;;;;;7.32;4.97;;;18.20;37.60;;;;;;5077535;28;20056;-71
2022/03/02 14:53:24;;;;;;;8.65;5.47;;;18.20;37.30;;;;;;5077758;28;20091;-71
2022/03/02 14:55:53;;;;;;;6.03;4.40;;;18.20;37.70;;;;;;5078155;28;20409;-71
2022/03/02 14:58:21;;;;;;;7.53;5.53;;;18.20;37.50;;;;;;5077225;28;20119;-71
2022/03/02 15:01:01;;;;;;;8.27;5.30;;;18.20;37.30;;;;;;5077228;28;20352;-71
2022/03/02 15:03:30;;;;;;;8.45;5.40;;;18.20;37.30;;;;;;5078346;28;20041;-70
2022/03/02 15:06:01;;;;;;;9.55;5.40;;;18.20;37.40;;;;;;5078344;28;20016;-71
2022/03/02 15:08:39;;;;;;;8.23;4.82;;;18.20;38.30;;;;;;5078021;28;20028;-71
2022/03/02 15:11:33;;;;;;;7.55;5.38;;;18.20;38.30;;;;;;5077993;28;20089;-70
2022/03/02 15:17:04;;;;;;;12.27;5.82;;;18.30;38.60;;;;;;5078595;28;20062;-71
2022/03/02 15:19:37;;;;;;;11.43;6.57;;;18.20;38.90;;;;;;5077815;28;20077;-70
2022/03/02 15:22:07;;;;;;;11.38;6.20;;;18.00;39.50;;;;;;5059192;28;20029;-71
2022/03/02 15:24:41;;;;;;;9.15;6.18;;;17.80;39.60;;;;;;5076815;28;20424;-71
2022/03/02 15:27:19;;;;;;;13.65;5.80;;;17.60;39.90;;;;;;5077590;28;20025;-71
2022/03/02 15:29:47;;;;;;;10.00;5.72;;;17.10;40.20;;;;;;5059091;28;20031;-70
2022/03/02 15:32:23;;;;;;;11.27;6.53;;;16.40;40.40;;;;;;5076695;28;20032;-70
2022/03/02 15:34:53;;;;;;;11.30;6.03;;;15.40;41.20;;;;;;5076659;28;20035;-70
2022/03/02 15:37:46;;;;;;;10.07;5.97;;;14.50;42.40;;;;;;5077465;28;20385;-70
2022/03/02 15:40:17;;;;;;;10.98;6.30;;;13.70;43.70;;;;;;5076598;28;20077;-70
2022/03/02 15:42:50;;;;;;;15.88;8.43;;;12.90;44.80;;;;;;5076988;28;20424;-70
2022/03/02 15:45:22;;;;;;;10.98;6.40;;;12.20;46.00;;;;;;5077512;28;20426;-70
2022/03/02 15:47:52;;;;;;;10.07;6.10;;;11.60;47.30;;;;;;5077529;28;20028;-70
2022/03/02 15:50:32;;;;;;;11.02;5.90;;;11.10;48.30;;;;;;5077611;28;20108;-70
2022/03/02 15:53:08;;;;;;;11.98;6.72;;;10.70;49.40;;;;;;5077527;28;20028;-70
2022/03/02 15:55:44;;;;;;;12.25;6.28;;;10.30;50.80;;;;;;5078009;28;20109;-70
2022/03/02 15:58:13;;;;;;;13.75;5.85;;;9.90;51.90;;;;;;5059643;28;20029;-70
2022/03/02 16:00:46;;;;;;;12.43;6.07;;;9.70;52.70;;;;;;5078130;28;20355;-70
2022/03/02 16:03:20;;;;;;;16.08;6.25;;;9.40;52.80;;;;;;5076307;28;20049;-70